createdAt,value
2022-10-29T00:01:00.737Z,12.40
2022-10-29T00:03:27.785Z,12.40
2022-10-29T00:05:57.396Z,12.30
2022-10-29T00:08:24.996Z,12.20
2022-10-29T00:10:52.025Z,12.20
2022-10-29T00:13:19.093Z,12.30
2022-10-29T00:15:46.186Z,12.30
2022-10-29T00:18:13.237Z,12.30
2022-10-29T00:20:40.292Z,12.30
2022-10-29T00:23:07.372Z,12.20
2022-10-29T00:25:34.466Z,12.00
2022-10-29T00:28:01.462Z,11.90
2022-10-29T00:30:28.648Z,11.80
2022-10-29T00:32:55.968Z,11.80
2022-10-29T00:35:23.228Z,11.80
2022-10-29T00:37:50.262Z,11.80
2022-10-29T00:40:17.359Z,11.90
2022-10-29T00:42:44.350Z,11.90
2022-10-29T00:45:20.457Z,11.90
2022-10-29T00:47:52.622Z,11.90
2022-10-29T00:50:23.367Z,12.00
2022-10-29T00:52:52.321Z,12.00
2022-10-29T00:55:20.723Z,12.00
2022-10-29T00:57:53.049Z,12.00
2022-10-29T01:00:21.482Z,12.00
2022-10-29T01:02:50.205Z,12.00
2022-10-29T01:05:22.133Z,12.10
2022-10-29T01:07:49.273Z,12.00
2022-10-29T01:10:22.519Z,12.00
2022-10-29T01:12:58.664Z,12.00
2022-10-29T01:16:00.842Z,12.00
2022-10-29T01:18:44.983Z,12.00
2022-10-29T01:21:42.881Z,12.00
2022-10-29T01:24:43.966Z,12.00
2022-10-29T01:27:38.569Z,12.00
2022-10-29T01:30:33.780Z,12.00
2022-10-29T01:33:36.812Z,12.10
2022-10-29T01:36:40.483Z,12.00
2022-10-29T01:39:35.902Z,12.00
2022-10-29T01:42:36.836Z,12.10
2022-10-29T01:45:22.010Z,12.20
2022-10-29T01:48:04.862Z,12.20
2022-10-29T01:50:34.466Z,12.20
2022-10-29T01:53:04.470Z,12.20
2022-10-29T01:55:36.769Z,12.20
2022-10-29T01:58:06.311Z,12.20
2022-10-29T02:01:18.027Z,12.10
2022-10-29T02:04:49.697Z,11.90
2022-10-29T02:07:30.577Z,11.80
2022-10-29T02:10:29.312Z,11.70
2022-10-29T02:12:57.890Z,11.70
2022-10-29T02:15:39.573Z,11.70
2022-10-29T02:18:08.696Z,11.70
2022-10-29T02:20:41.870Z,11.80
2022-10-29T02:23:09.313Z,11.80
2022-10-29T02:25:36.673Z,11.80
2022-10-29T02:28:04.008Z,11.90
2022-10-29T02:30:31.164Z,11.90
2022-10-29T02:32:58.538Z,11.80
2022-10-29T02:35:25.920Z,11.90
2022-10-29T02:37:53.080Z,12.10
2022-10-29T02:40:20.077Z,11.90
2022-10-29T02:42:47.064Z,12.00
2022-10-29T02:45:14.147Z,12.00
2022-10-29T02:47:41.150Z,12.00
2022-10-29T02:50:09.092Z,12.00
2022-10-29T02:52:36.117Z,12.00
2022-10-29T02:55:03.483Z,12.00
2022-10-29T02:57:30.476Z,12.00
2022-10-29T02:59:57.679Z,11.90
2022-10-29T03:02:24.932Z,11.90
2022-10-29T03:04:52.034Z,11.80
2022-10-29T03:07:19.071Z,11.70
2022-10-29T03:09:46.080Z,11.70
2022-10-29T03:12:13.090Z,11.60
2022-10-29T03:14:40.121Z,11.50
2022-10-29T03:17:07.181Z,11.50
2022-10-29T03:19:34.157Z,11.50
2022-10-29T03:22:01.241Z,11.40
2022-10-29T03:24:28.263Z,11.40
2022-10-29T03:26:55.270Z,11.40
2022-10-29T03:29:22.287Z,11.30
2022-10-29T03:31:49.279Z,11.20
2022-10-29T03:34:16.314Z,11.10
2022-10-29T03:36:43.360Z,11.10
2022-10-29T03:39:10.348Z,11.20
2022-10-29T03:41:37.338Z,11.10
2022-10-29T03:44:04.415Z,11.20
2022-10-29T03:46:31.463Z,11.20
2022-10-29T03:48:58.578Z,11.10
2022-10-29T03:51:25.724Z,11.10
2022-10-29T03:53:52.805Z,11.00
2022-10-29T03:56:19.853Z,11.00
2022-10-29T03:58:46.887Z,11.00
2022-10-29T04:01:13.994Z,11.00
2022-10-29T04:03:42.530Z,11.10
2022-10-29T04:06:13.095Z,11.00
2022-10-29T04:08:40.785Z,11.10
2022-10-29T04:11:11.325Z,11.10
2022-10-29T04:13:38.452Z,11.20
2022-10-29T04:16:05.895Z,11.20
2022-10-29T04:18:33.047Z,11.20
2022-10-29T04:29:24.556Z,11.20
2022-10-29T04:31:52.190Z,11.20
2022-10-29T04:34:19.275Z,11.20
2022-10-29T04:36:46.281Z,11.20
2022-10-29T04:39:13.378Z,11.20
2022-10-29T04:41:40.384Z,11.20
2022-10-29T04:44:07.397Z,11.20
2022-10-29T04:46:34.486Z,11.20
2022-10-29T04:49:01.652Z,11.30
2022-10-29T04:51:28.773Z,11.40
2022-10-29T04:53:56.538Z,11.50
2022-10-29T04:56:24.100Z,11.50
2022-10-29T04:58:52.809Z,11.60
2022-10-29T05:01:20.139Z,11.80
2022-10-29T05:03:47.307Z,11.90
2022-10-29T05:06:14.319Z,11.90
2022-10-29T05:08:41.409Z,12.00
2022-10-29T05:11:08.673Z,12.00
2022-10-29T05:13:35.860Z,12.00
2022-10-29T05:16:03.103Z,12.00
2022-10-29T05:18:30.249Z,12.00
2022-10-29T05:20:57.912Z,11.90
2022-10-29T05:23:25.239Z,11.80
2022-10-29T05:25:52.598Z,11.80
2022-10-29T05:28:22.712Z,11.80
2022-10-29T05:30:52.147Z,11.80
2022-10-29T05:33:23.936Z,11.80
2022-10-29T05:35:52.204Z,11.90
2022-10-29T05:38:19.532Z,11.80
2022-10-29T05:40:46.821Z,11.80
2022-10-29T05:43:17.988Z,11.80
2022-10-29T05:45:45.779Z,11.80
2022-10-29T05:48:13.426Z,11.80
2022-10-29T05:50:40.621Z,11.90
2022-10-29T05:53:12.094Z,11.90
2022-10-29T05:55:40.175Z,11.90
2022-10-29T05:58:11.881Z,11.90
2022-10-29T06:00:43.577Z,11.90
2022-10-29T06:03:20.795Z,11.90
2022-10-29T06:05:49.300Z,11.90
2022-10-29T06:08:17.055Z,11.90
2022-10-29T06:10:44.137Z,11.80
2022-10-29T06:13:20.571Z,11.80
2022-10-29T06:15:49.396Z,11.70
2022-10-29T06:18:16.574Z,11.80
2022-10-29T06:20:43.896Z,11.80
2022-10-29T06:23:12.127Z,11.80
2022-10-29T06:25:39.281Z,11.90
2022-10-29T06:28:16.429Z,11.90
2022-10-29T06:30:49.185Z,11.90
2022-10-29T06:33:18.685Z,11.80
2022-10-29T06:35:46.555Z,11.80
2022-10-29T06:38:14.063Z,11.80
2022-10-29T06:40:42.458Z,11.90
2022-10-29T06:43:17.793Z,12.00
2022-10-29T06:45:44.852Z,12.00
2022-10-29T06:48:11.855Z,12.00
2022-10-29T06:50:38.846Z,12.10
2022-10-29T06:53:09.581Z,12.00
2022-10-29T06:55:36.669Z,12.10
2022-10-29T06:58:06.967Z,12.10
2022-10-29T07:00:35.076Z,12.20
2022-10-29T07:03:03.620Z,12.30
2022-10-29T07:05:31.817Z,12.30
2022-10-29T07:08:01.184Z,12.40
2022-10-29T07:10:31.132Z,12.50
2022-10-29T07:12:59.070Z,12.50
2022-10-29T07:15:27.729Z,12.50
2022-10-29T07:17:59.651Z,12.60
2022-10-29T07:20:29.652Z,12.70
2022-10-29T07:22:57.725Z,12.80
2022-10-29T07:25:25.181Z,12.80
2022-10-29T07:27:52.582Z,12.90
2022-10-29T07:30:20.793Z,13.00
2022-10-29T07:32:47.812Z,13.10
2022-10-29T07:35:14.895Z,13.10
2022-10-29T07:37:41.875Z,13.10
2022-10-29T07:40:09.976Z,13.20
2022-10-29T07:42:37.037Z,13.30
2022-10-29T07:45:04.556Z,13.30
2022-10-29T07:47:31.646Z,13.50
2022-10-29T07:49:58.887Z,13.50
2022-10-29T07:52:25.978Z,13.60
2022-10-29T07:54:52.990Z,13.70
2022-10-29T07:57:22.478Z,13.60
2022-10-29T07:59:50.395Z,13.50
2022-10-29T08:02:17.462Z,13.60
2022-10-29T08:04:44.588Z,13.70
2022-10-29T08:07:11.733Z,14.00
2022-10-29T08:09:38.726Z,14.20
2022-10-29T08:12:07.201Z,14.40
2022-10-29T08:14:34.341Z,14.60
2022-10-29T08:17:01.322Z,14.70
2022-10-29T08:19:29.985Z,14.90
2022-10-29T08:21:57.523Z,15.00
2022-10-29T08:24:24.755Z,15.20
2022-10-29T08:26:51.797Z,15.30
2022-10-29T08:29:18.845Z,15.50
2022-10-29T08:31:45.874Z,15.60
2022-10-29T08:34:13.953Z,15.70
2022-10-29T08:36:42.094Z,15.80
2022-10-29T08:39:09.084Z,16.00
2022-10-29T08:41:54.204Z,16.10
2022-10-29T08:45:15.240Z,16.10
2022-10-29T08:48:04.963Z,16.20
2022-10-29T08:50:41.185Z,16.40
2022-10-29T08:53:23.985Z,16.50
2022-10-29T08:55:52.980Z,16.60
2022-10-29T08:58:32.126Z,16.70
2022-10-29T09:01:00.463Z,16.80
2022-10-29T09:03:29.829Z,16.90
2022-10-29T09:06:17.926Z,16.90
2022-10-29T09:09:13.524Z,17.00
2022-10-29T09:11:52.814Z,17.00
2022-10-29T09:14:39.804Z,17.10
2022-10-29T09:17:35.029Z,17.20
2022-10-29T09:20:20.057Z,17.20
2022-10-29T09:23:00.722Z,17.40
2022-10-29T09:25:39.369Z,17.60
2022-10-29T09:28:35.981Z,17.70
2022-10-29T09:31:11.545Z,17.80
2022-10-29T09:33:40.417Z,17.90
2022-10-29T09:36:20.144Z,17.90
2022-10-29T09:39:18.859Z,18.00
2022-10-29T09:41:52.018Z,18.10
2022-10-29T09:44:39.033Z,18.30
2022-10-29T09:47:39.732Z,18.40
2022-10-29T09:50:33.321Z,18.60
2022-10-29T09:53:00.591Z,18.70
2022-10-29T09:55:36.634Z,18.90
2022-10-29T09:58:03.703Z,19.10
2022-10-29T10:00:32.011Z,19.30
2022-10-29T10:03:06.622Z,19.40
2022-10-29T10:05:36.073Z,19.50
2022-10-29T10:08:13.732Z,19.60
2022-10-29T10:10:55.757Z,19.70
2022-10-29T10:13:31.549Z,19.80
2022-10-29T10:16:01.820Z,19.90
2022-10-29T10:21:27.725Z,20.10
2022-10-29T10:23:59.884Z,20.20
2022-10-29T10:26:28.091Z,20.10
2022-10-29T10:29:25.825Z,20.20
2022-10-29T10:31:58.229Z,20.30
2022-10-29T10:34:34.180Z,20.50
2022-10-29T10:37:10.087Z,20.60
2022-10-29T10:39:39.095Z,20.70
2022-10-29T10:42:26.890Z,20.80
2022-10-29T10:45:00.316Z,21.10
2022-10-29T10:47:31.633Z,21.20
2022-10-29T10:50:25.679Z,21.40
2022-10-29T10:52:57.066Z,21.40
2022-10-29T10:55:40.695Z,21.50
2022-10-29T10:58:44.356Z,21.60
2022-10-29T11:01:35.396Z,21.90
2022-10-29T11:04:10.445Z,22.50
2022-10-29T11:06:42.192Z,23.10
2022-10-29T11:09:27.345Z,23.30
2022-10-29T11:12:13.758Z,23.40
2022-10-29T11:15:26.693Z,23.10
2022-10-29T11:18:10.353Z,23.00
2022-10-29T11:20:41.817Z,22.60
2022-10-29T11:23:27.750Z,22.20
2022-10-29T11:26:08.899Z,22.10
2022-10-29T11:28:45.660Z,22.40
2022-10-29T11:31:34.844Z,22.60
2022-10-29T11:34:21.722Z,22.90
2022-10-29T11:37:03.130Z,23.10
2022-10-29T11:40:05.607Z,23.00
2022-10-29T11:42:32.748Z,22.40
2022-10-29T11:45:00.215Z,21.80
2022-10-29T11:48:03.397Z,21.40
2022-10-29T11:50:47.629Z,21.00
2022-10-29T11:53:34.582Z,20.70
2022-10-29T11:56:15.788Z,20.40
2022-10-29T11:59:14.345Z,20.30
2022-10-29T12:02:09.046Z,20.20
2022-10-29T12:04:48.719Z,20.00
2022-10-29T12:08:14.141Z,19.90
2022-10-29T12:11:04.220Z,19.80
2022-10-29T12:13:59.141Z,19.90
2022-10-29T12:16:49.672Z,20.00
2022-10-29T12:19:42.371Z,20.00
2022-10-29T12:22:24.129Z,20.10
2022-10-29T12:25:21.284Z,20.20
2022-10-29T12:28:27.869Z,20.30
2022-10-29T12:30:57.603Z,20.40
2022-10-29T12:33:57.265Z,20.60
2022-10-29T12:36:35.092Z,20.80
2022-10-29T12:39:06.107Z,21.00
2022-10-29T12:41:51.000Z,21.20
2022-10-29T12:44:47.655Z,21.10
2022-10-29T12:47:26.977Z,21.10
2022-10-29T12:50:43.664Z,21.00
2022-10-29T12:53:40.733Z,21.00
2022-10-29T12:56:09.517Z,21.00
2022-10-29T12:58:57.292Z,20.90
2022-10-29T13:01:57.326Z,20.90
2022-10-29T13:04:28.620Z,21.00
2022-10-29T13:07:04.600Z,21.30
2022-10-29T13:09:37.972Z,21.50
2022-10-29T13:12:13.617Z,21.60
2022-10-29T13:14:46.893Z,21.90
2022-10-29T13:17:36.706Z,22.20
2022-10-29T13:20:28.075Z,22.30
2022-10-29T13:22:59.335Z,22.60
2022-10-29T13:25:38.324Z,22.60
2022-10-29T13:28:25.652Z,22.60
2022-10-29T13:31:13.614Z,22.80
2022-10-29T13:33:40.593Z,22.90
2022-10-29T13:36:17.147Z,23.20
2022-10-29T13:39:07.330Z,23.40
2022-10-29T13:41:42.865Z,23.40
2022-10-29T13:44:26.968Z,23.20
2022-10-29T13:47:04.356Z,23.10
2022-10-29T13:49:41.221Z,22.90
2022-10-29T13:52:17.781Z,22.30
2022-10-29T13:54:53.287Z,22.00
2022-10-29T13:57:31.762Z,21.70
2022-10-29T14:00:06.926Z,21.60
2022-10-29T14:02:37.207Z,21.70
2022-10-29T14:05:32.365Z,21.80
2022-10-29T14:08:11.640Z,21.90
2022-10-29T14:10:41.543Z,22.00
2022-10-29T14:13:14.460Z,21.90
2022-10-29T14:16:07.825Z,21.70
2022-10-29T14:18:38.012Z,21.70
2022-10-29T14:21:18.059Z,21.60
2022-10-29T14:24:04.430Z,21.40
2022-10-29T14:26:37.902Z,21.20
2022-10-29T14:29:24.764Z,21.00
2022-10-29T14:32:15.763Z,20.70
2022-10-29T14:34:45.369Z,20.50
2022-10-29T14:37:21.289Z,20.30
2022-10-29T14:39:58.571Z,20.20
2022-10-29T14:42:37.634Z,20.10
2022-10-29T14:45:28.670Z,20.00
2022-10-29T14:48:09.666Z,19.80
2022-10-29T14:50:37.285Z,19.60
2022-10-29T14:53:27.821Z,19.50
2022-10-29T14:55:55.465Z,19.30
2022-10-29T14:58:31.053Z,19.10
2022-10-29T15:01:09.952Z,19.00
2022-10-29T15:03:37.360Z,19.10
2022-10-29T15:06:20.653Z,19.00
2022-10-29T15:08:59.013Z,18.80
2022-10-29T15:11:59.981Z,18.60
2022-10-29T15:14:49.426Z,18.60
2022-10-29T15:17:40.526Z,18.40
2022-10-29T15:20:23.226Z,18.20
2022-10-29T15:22:55.789Z,18.10
2022-10-29T15:25:36.774Z,18.10
2022-10-29T15:28:04.497Z,18.00
2022-10-29T15:30:35.425Z,17.90
2022-10-29T15:33:08.314Z,17.80
2022-10-29T15:35:36.804Z,17.80
2022-10-29T15:38:04.495Z,17.70
2022-10-29T15:40:31.581Z,17.60
2022-10-29T15:43:29.666Z,17.60
2022-10-29T15:46:04.336Z,17.50
2022-10-29T15:48:37.541Z,17.50
2022-10-29T15:51:04.941Z,17.40
2022-10-29T15:53:31.953Z,17.40
2022-10-29T15:55:59.042Z,17.30
2022-10-29T15:58:27.203Z,17.20
2022-10-29T16:00:54.258Z,17.10
2022-10-29T16:03:27.439Z,17.00
2022-10-29T16:06:04.077Z,16.90
2022-10-29T16:08:51.229Z,16.90
2022-10-29T16:11:22.047Z,16.80
2022-10-29T16:13:54.832Z,16.80
2022-10-29T16:16:25.862Z,16.60
2022-10-29T16:18:53.502Z,16.60
2022-10-29T16:21:24.076Z,16.40
2022-10-29T16:23:51.915Z,16.30
2022-10-29T16:26:24.838Z,16.20
2022-10-29T16:28:53.399Z,16.10
2022-10-29T16:31:27.205Z,16.00
2022-10-29T16:33:58.421Z,15.80
2022-10-29T16:36:25.908Z,15.70
2022-10-29T16:38:52.907Z,15.60
2022-10-29T16:41:20.547Z,15.50
2022-10-29T16:43:47.840Z,15.50
2022-10-29T16:46:16.168Z,15.40
2022-10-29T16:48:43.626Z,15.40
2022-10-29T16:51:10.758Z,15.40
2022-10-29T16:53:38.109Z,15.30
2022-10-29T16:56:07.184Z,15.20
2022-10-29T16:58:34.238Z,15.20
2022-10-29T17:01:07.140Z,15.10
2022-10-29T17:03:35.418Z,15.00
2022-10-29T17:06:09.098Z,15.00
2022-10-29T17:08:37.968Z,14.90
2022-10-29T17:11:10.081Z,15.00
2022-10-29T17:13:37.912Z,15.00
2022-10-29T17:16:14.762Z,15.10
2022-10-29T17:18:41.962Z,15.10
2022-10-29T17:21:08.976Z,15.10
2022-10-29T17:23:36.089Z,15.00
2022-10-29T17:26:03.432Z,14.90
2022-10-29T17:28:30.599Z,14.90
2022-10-29T17:30:57.637Z,14.90
2022-10-29T17:33:24.772Z,14.90
2022-10-29T17:36:06.481Z,14.80
2022-10-29T17:38:33.525Z,14.70
2022-10-29T17:41:00.542Z,14.60
2022-10-29T17:43:27.717Z,14.70
2022-10-29T17:45:54.928Z,14.60
2022-10-29T17:48:24.999Z,14.60
2022-10-29T17:51:00.789Z,14.60
2022-10-29T17:53:29.966Z,14.60
2022-10-29T17:56:01.308Z,14.60
2022-10-29T17:58:28.476Z,14.70
2022-10-29T18:01:03.771Z,14.70
2022-10-29T18:03:31.003Z,14.60
2022-10-29T18:06:06.225Z,14.50
2022-10-29T18:08:37.036Z,14.40
2022-10-29T18:11:08.270Z,14.40
2022-10-29T18:13:41.247Z,14.30
2022-10-29T18:16:19.786Z,14.20
2022-10-29T18:19:01.414Z,14.10
2022-10-29T18:21:29.894Z,14.00
2022-10-29T18:23:57.027Z,14.00
2022-10-29T18:26:24.115Z,14.00
2022-10-29T18:28:51.931Z,13.90
2022-10-29T18:31:19.530Z,13.90
2022-10-29T18:33:47.316Z,13.90
2022-10-29T18:36:14.717Z,13.80
2022-10-29T18:38:41.793Z,13.80
2022-10-29T18:41:09.040Z,13.80
2022-10-29T18:43:36.125Z,13.70
2022-10-29T18:46:06.450Z,13.70
2022-10-29T18:48:38.904Z,13.70
2022-10-29T18:51:12.686Z,13.60
2022-10-29T18:53:40.447Z,13.60
2022-10-29T18:56:20.383Z,13.60
2022-10-29T18:58:47.692Z,13.60
2022-10-29T19:01:22.705Z,13.60
2022-10-29T19:03:55.882Z,13.70
2022-10-29T19:06:28.637Z,13.70
2022-10-29T19:08:56.779Z,13.60
2022-10-29T19:11:26.220Z,13.60
2022-10-29T19:14:01.604Z,13.50
2022-10-29T19:16:31.611Z,13.50
2022-10-29T19:19:08.067Z,13.50
2022-10-29T19:21:37.540Z,13.50
2022-10-29T19:24:06.009Z,13.40
2022-10-29T19:26:36.078Z,13.50
2022-10-29T19:29:04.799Z,13.50
2022-10-29T19:31:33.026Z,13.50
2022-10-29T19:34:02.802Z,13.60
2022-10-29T19:36:30.713Z,13.60
2022-10-29T19:38:58.501Z,13.60
2022-10-29T19:41:26.672Z,13.50
2022-10-29T19:43:53.977Z,13.40
2022-10-29T19:46:24.176Z,13.40
2022-10-29T19:48:55.210Z,13.40
2022-10-29T19:51:22.768Z,13.40
2022-10-29T19:53:54.666Z,13.50
2022-10-29T19:56:22.672Z,13.50
2022-10-29T19:58:50.064Z,13.50
2022-10-29T20:01:19.088Z,13.50
2022-10-29T20:03:47.813Z,13.40
2022-10-29T20:06:15.746Z,13.40
2022-10-29T20:08:42.957Z,13.40
2022-10-29T20:11:10.198Z,13.20
2022-10-29T20:13:38.186Z,13.20
2022-10-29T20:16:19.263Z,13.10
2022-10-29T20:18:48.073Z,13.10
2022-10-29T20:21:15.835Z,13.10
2022-10-29T20:23:43.286Z,13.10
2022-10-29T20:26:10.469Z,13.10
2022-10-29T20:28:37.740Z,13.10
2022-10-29T20:31:17.008Z,13.10
2022-10-29T20:33:51.889Z,13.20
2022-10-29T20:36:19.457Z,13.20
2022-10-29T20:38:53.443Z,13.20
2022-10-29T20:41:22.201Z,13.10
2022-10-29T20:43:58.349Z,13.10
2022-10-29T20:46:26.092Z,13.10
2022-10-29T20:48:53.633Z,13.00
2022-10-29T20:51:22.812Z,13.00
2022-10-29T20:53:50.639Z,13.00
2022-10-29T20:56:19.915Z,13.00
2022-10-29T20:58:47.987Z,13.00
2022-10-29T21:01:19.478Z,13.00
2022-10-29T21:03:50.127Z,13.00
2022-10-29T21:06:19.143Z,13.00
2022-10-29T21:08:48.707Z,13.00
2022-10-29T21:11:18.563Z,12.90
2022-10-29T21:13:45.881Z,12.90
2022-10-29T21:16:28.216Z,12.90
2022-10-29T21:19:00.800Z,12.90
2022-10-29T21:21:30.475Z,13.00
2022-10-29T21:23:58.128Z,13.00
2022-10-29T21:26:27.619Z,13.10
2022-10-29T21:28:56.347Z,13.10
2022-10-29T21:31:26.914Z,13.10
2022-10-29T21:33:56.717Z,13.10
2022-10-29T21:36:25.233Z,13.20
2022-10-29T21:38:52.284Z,13.20
2022-10-29T21:41:19.370Z,13.20
2022-10-29T21:43:46.422Z,13.20
2022-10-29T21:46:13.451Z,13.20
2022-10-29T21:48:40.541Z,13.20
2022-10-29T21:51:14.269Z,13.20
2022-10-29T21:53:41.627Z,13.10
2022-10-29T21:56:12.604Z,13.10
2022-10-29T21:58:39.720Z,13.10
2022-10-29T22:01:09.459Z,13.00
2022-10-29T22:03:40.744Z,13.00
2022-10-29T22:06:12.017Z,12.90
2022-10-29T22:08:39.663Z,12.80
2022-10-29T22:11:07.165Z,12.70
2022-10-29T22:13:35.497Z,12.70
2022-10-29T22:16:04.244Z,12.60
2022-10-29T22:18:31.803Z,12.60
2022-10-29T22:21:08.100Z,12.50
2022-10-29T22:23:36.207Z,12.50
2022-10-29T22:26:03.309Z,12.40
2022-10-29T22:28:30.490Z,12.40
2022-10-29T22:31:02.498Z,12.30
2022-10-29T22:33:29.992Z,12.30
2022-10-29T22:36:04.241Z,12.20
2022-10-29T22:38:31.248Z,12.20
2022-10-29T22:40:58.238Z,12.10
2022-10-29T22:43:25.503Z,12.00
2022-10-29T22:45:53.068Z,12.00
2022-10-29T22:48:20.058Z,12.00
2022-10-29T22:50:47.087Z,12.00
2022-10-29T22:53:14.092Z,11.90
2022-10-29T22:55:41.105Z,11.80
2022-10-29T22:58:08.164Z,11.80
2022-10-29T23:00:35.217Z,11.70
2022-10-29T23:03:02.211Z,11.70
2022-10-29T23:05:29.238Z,11.70
2022-10-29T23:07:56.590Z,11.60
2022-10-29T23:10:23.715Z,11.50
2022-10-29T23:12:50.803Z,11.50
2022-10-29T23:15:17.949Z,11.40
2022-10-29T23:17:44.945Z,11.40
2022-10-29T23:20:11.991Z,11.40
2022-10-29T23:22:38.964Z,11.50
2022-10-29T23:25:06.447Z,11.50
2022-10-29T23:27:33.532Z,11.50
2022-10-29T23:30:00.508Z,11.50
2022-10-29T23:32:27.491Z,11.60
2022-10-29T23:34:54.530Z,11.60
2022-10-29T23:37:21.598Z,11.60
2022-10-29T23:39:48.626Z,11.60
2022-10-29T23:42:17.080Z,11.50
2022-10-29T23:44:44.063Z,11.60
2022-10-29T23:47:11.041Z,11.50
2022-10-29T23:49:38.078Z,11.50
2022-10-29T23:52:05.228Z,11.50
2022-10-29T23:54:32.213Z,11.50
2022-10-29T23:56:59.237Z,11.60
2022-10-29T23:59:26.217Z,11.50
